sensor_id;sensor_type;location;lat;lon;timestamp;pressure;altitude;pressure_sealevel;temperature;humidity
10099;BME280;5089;42.656;23.374;2022-07-23T05:34:18;95123.31;;;24.65;47.84
10099;BME280;5089;42.656;23.374;2022-07-23T05:36:56;95112.84;;;24.70;50.97
10099;BME280;5089;42.656;23.374;2022-07-23T05:52:21;95130.69;;;26.57;42.04
10099;BME280;5089;42.656;23.374;2022-07-23T05:54:48;95167.59;;;26.72;42.49
10099;BME280;5089;42.656;23.374;2022-07-23T05:57:15;95170.81;;;26.74;42.88
10099;BME280;5089;42.656;23.374;2022-07-23T05:59:42;95170.81;;;26.74;42.94
10099;BME280;5089;42.656;23.374;2022-07-23T06:02:09;95155.66;;;26.64;42.67
10099;BME280;5089;42.656;23.374;2022-07-23T06:04:36;95109.38;;;26.32;42.29
10099;BME280;5089;42.656;23.374;2022-07-23T06:07:03;95159.31;;;26.72;42.33
10099;BME280;5089;42.656;23.374;2022-07-23T06:09:31;95155.25;;;26.85;42.37
10099;BME280;5089;42.656;23.374;2022-07-23T06:12:00;95111.16;;;26.66;41.84
10099;BME280;5089;42.656;23.374;2022-07-23T06:14:29;95162.88;;;26.92;40.95
10099;BME280;5089;42.656;23.374;2022-07-23T06:16:56;95140.25;;;26.83;40.05
10099;BME280;5089;42.656;23.374;2022-07-23T06:19:25;95160.19;;;26.95;39.80
10099;BME280;5089;42.656;23.374;2022-07-23T06:21:54;95168.75;;;26.90;39.46
10099;BME280;5089;42.656;23.374;2022-07-23T06:24:22;95128.19;;;26.71;39.84
10099;BME280;5089;42.656;23.374;2022-07-23T06:26:53;95103.94;;;26.58;40.90
10099;BME280;5089;42.656;23.374;2022-07-23T06:29:20;95157.22;;;27.07;41.14
10099;BME280;5089;42.656;23.374;2022-07-23T06:31:49;95150.25;;;27.17;41.70
10099;BME280;5089;42.656;23.374;2022-07-23T06:34:17;95136.97;;;27.22;42.13
10099;BME280;5089;42.656;23.374;2022-07-23T06:36:53;95134.81;;;27.39;41.97
10099;BME280;5089;42.656;23.374;2022-07-23T06:39:20;95145.47;;;27.63;41.82
10099;BME280;5089;42.656;23.374;2022-07-23T06:41:48;95148.75;;;27.72;41.32
10099;BME280;5089;42.656;23.374;2022-07-23T06:44:23;95121.97;;;27.76;40.88
10099;BME280;5089;42.656;23.374;2022-07-23T06:46:51;95141.50;;;27.90;40.43
10099;BME280;5089;42.656;23.374;2022-07-23T06:49:19;95065.75;;;27.61;41.19
10099;BME280;5089;42.656;23.374;2022-07-23T06:51:46;95090.25;;;27.96;39.83
10099;BME280;5089;42.656;23.374;2022-07-23T06:54:17;95143.22;;;28.31;39.50
10099;BME280;5089;42.656;23.374;2022-07-23T06:56:58;95125.88;;;28.35;38.46
10099;BME280;5089;42.656;23.374;2022-07-23T06:59:37;95141.84;;;28.52;40.41
10099;BME280;5089;42.656;23.374;2022-07-23T07:02:18;95087.84;;;28.24;40.08
10099;BME280;5089;42.656;23.374;2022-07-23T07:04:45;95054.59;;;28.17;38.79
10099;BME280;5089;42.656;23.374;2022-07-23T07:07:26;95121.50;;;28.67;37.65
10099;BME280;5089;42.656;23.374;2022-07-23T07:09:58;95124.34;;;28.77;37.29
10099;BME280;5089;42.656;23.374;2022-07-23T07:12:27;95099.88;;;28.83;38.86
10099;BME280;5089;42.656;23.374;2022-07-23T07:14:59;95107.50;;;28.93;37.80
10099;BME280;5089;42.656;23.374;2022-07-23T07:17:50;95136.31;;;29.32;38.21
10099;BME280;5089;42.656;23.374;2022-07-23T07:20:34;95087.09;;;29.12;37.12
10099;BME280;5089;42.656;23.374;2022-07-23T07:23:14;95143.47;;;29.40;36.50
10099;BME280;5089;42.656;23.374;2022-07-23T07:25:57;95132.50;;;29.55;36.11
10099;BME280;5089;42.656;23.374;2022-07-23T07:28:28;95108.31;;;29.45;35.66
10099;BME280;5089;42.656;23.374;2022-07-23T07:31:12;95114.41;;;29.75;35.39
10099;BME280;5089;42.656;23.374;2022-07-23T07:33:44;95039.00;;;29.37;34.56
10099;BME280;5089;42.656;23.374;2022-07-23T07:36:25;95126.44;;;30.00;33.50
10099;BME280;5089;42.656;23.374;2022-07-23T07:38:57;95062.91;;;29.63;32.93
10099;BME280;5089;42.656;23.374;2022-07-23T07:41:25;95096.31;;;29.88;33.53
10099;BME280;5089;42.656;23.374;2022-07-23T07:43:52;95117.00;;;30.15;33.87
10099;BME280;5089;42.656;23.374;2022-07-23T07:46:21;95120.63;;;30.30;33.76
10099;BME280;5089;42.656;23.374;2022-07-23T07:49:06;95011.88;;;29.71;33.00
10099;BME280;5089;42.656;23.374;2022-07-23T07:51:50;95075.00;;;30.17;33.39
10099;BME280;5089;42.656;23.374;2022-07-23T07:54:31;95109.59;;;30.48;33.49
10099;BME280;5089;42.656;23.374;2022-07-23T07:57:12;95115.59;;;30.71;33.65
10099;BME280;5089;42.656;23.374;2022-07-23T07:59:45;95102.13;;;30.69;34.69
10099;BME280;5089;42.656;23.374;2022-07-23T08:02:14;95063.25;;;30.55;34.02
10099;BME280;5089;42.656;23.374;2022-07-23T08:04:41;95103.72;;;30.81;33.59
10099;BME280;5089;42.656;23.374;2022-07-23T08:07:07;95105.69;;;30.84;33.37
10099;BME280;5089;42.656;23.374;2022-07-23T08:09:34;95085.47;;;30.80;32.90
10099;BME280;5089;42.656;23.374;2022-07-23T08:12:05;95100.59;;;30.96;33.24
10099;BME280;5089;42.656;23.374;2022-07-23T08:14:45;95102.97;;;31.09;32.46
10099;BME280;5089;42.656;23.374;2022-07-23T08:17:28;95062.06;;;30.74;32.37
10099;BME280;5089;42.656;23.374;2022-07-23T08:20:11;95088.69;;;31.03;32.74
10099;BME280;5089;42.656;23.374;2022-07-23T08:22:43;95098.19;;;31.16;32.52
10099;BME280;5089;42.656;23.374;2022-07-23T08:25:41;95074.00;;;31.10;32.74
10099;BME280;5089;42.656;23.374;2022-07-23T08:28:18;95102.53;;;31.35;32.40
10099;BME280;5089;42.656;23.374;2022-07-23T08:30:45;95073.56;;;31.32;31.94
10099;BME280;5089;42.656;23.374;2022-07-23T08:33:17;95093.78;;;31.40;32.26
10099;BME280;5089;42.656;23.374;2022-07-23T08:35:45;95071.97;;;31.31;31.84
10099;BME280;5089;42.656;23.374;2022-07-23T08:38:15;95092.22;;;31.57;32.22
10099;BME280;5089;42.656;23.374;2022-07-23T08:40:46;95046.59;;;31.29;32.32
10099;BME280;5089;42.656;23.374;2022-07-23T08:43:16;95034.31;;;31.30;32.13
10099;BME280;5089;42.656;23.374;2022-07-23T08:48:26;95102.03;;;32.00;31.59
10099;BME280;5089;42.656;23.374;2022-07-23T08:50:55;95102.00;;;32.11;31.88
10099;BME280;5089;42.656;23.374;2022-07-23T08:53:25;95062.31;;;32.03;31.23
10099;BME280;5089;42.656;23.374;2022-07-23T08:55:55;95089.19;;;32.31;30.80
10099;BME280;5089;42.656;23.374;2022-07-23T08:58:23;95074.03;;;32.39;30.11
10099;BME280;5089;42.656;23.374;2022-07-23T09:00:52;95071.66;;;32.37;30.48
10099;BME280;5089;42.656;23.374;2022-07-23T09:03:28;95077.16;;;32.51;30.66
10099;BME280;5089;42.656;23.374;2022-07-23T09:05:57;95088.19;;;32.69;30.04
10099;BME280;5089;42.656;23.374;2022-07-23T09:08:34;95063.59;;;32.61;29.75
10099;BME280;5089;42.656;23.374;2022-07-23T09:11:03;95073.81;;;32.78;30.46
10099;BME280;5089;42.656;23.374;2022-07-23T09:13:33;95080.88;;;32.93;30.48
10099;BME280;5089;42.656;23.374;2022-07-23T09:16:03;95068.84;;;33.03;30.57
10099;BME280;5089;42.656;23.374;2022-07-23T09:18:39;95080.25;;;33.23;29.58
10099;BME280;5089;42.656;23.374;2022-07-23T09:21:12;95035.00;;;33.08;28.83
10099;BME280;5089;42.656;23.374;2022-07-23T09:23:41;95002.38;;;33.05;28.78
10099;BME280;5089;42.656;23.374;2022-07-23T09:26:23;95057.88;;;33.33;27.06
10099;BME280;5089;42.656;23.374;2022-07-23T09:28:55;95054.19;;;33.40;27.74
10099;BME280;5089;42.656;23.374;2022-07-23T09:31:24;95065.19;;;33.57;27.19
10099;BME280;5089;42.656;23.374;2022-07-23T09:34:06;95071.47;;;33.69;27.54
10099;BME280;5089;42.656;23.374;2022-07-23T09:36:38;95045.81;;;33.81;27.66
10099;BME280;5089;42.656;23.374;2022-07-23T09:39:06;95054.25;;;34.07;27.53
10099;BME280;5089;42.656;23.374;2022-07-23T09:41:38;95062.56;;;34.45;27.09
10099;BME280;5089;42.656;23.374;2022-07-23T09:44:10;94982.44;;;34.15;26.66
10099;BME280;5089;42.656;23.374;2022-07-23T09:46:38;95062.84;;;34.81;26.12
10099;BME280;5089;42.656;23.374;2022-07-23T09:49:15;95052.03;;;35.06;24.37
10099;BME280;5089;42.656;23.374;2022-07-23T09:51:50;95051.06;;;35.19;24.36
10099;BME280;5089;42.656;23.374;2022-07-23T09:54:28;95010.75;;;34.94;23.70
10099;BME280;5089;42.656;23.374;2022-07-23T09:56:59;95069.09;;;35.38;23.86
10099;BME280;5089;42.656;23.374;2022-07-23T09:59:28;95035.06;;;35.43;23.91
10099;BME280;5089;42.656;23.374;2022-07-23T10:01:57;95060.59;;;35.22;21.25
10099;BME280;5089;42.656;23.374;2022-07-23T10:04:28;95012.38;;;34.91;22.36
10099;BME280;5089;42.656;23.374;2022-07-23T10:06:56;95040.19;;;35.25;22.76
10099;BME280;5089;42.656;23.374;2022-07-23T10:09:26;95009.31;;;35.32;22.58
10099;BME280;5089;42.656;23.374;2022-07-23T10:11:58;94990.47;;;35.59;22.69
10099;BME280;5089;42.656;23.374;2022-07-23T10:14:48;95024.72;;;36.03;22.64
10099;BME280;5089;42.656;23.374;2022-07-23T10:17:16;94997.34;;;36.14;22.62
10099;BME280;5089;42.656;23.374;2022-07-23T10:19:45;95021.38;;;36.47;22.98
10099;BME280;5089;42.656;23.374;2022-07-23T10:22:18;95010.88;;;36.51;21.84
10099;BME280;5089;42.656;23.374;2022-07-23T10:24:54;94974.88;;;36.53;21.91
10099;BME280;5089;42.656;23.374;2022-07-23T10:27:47;94995.53;;;36.92;21.74
10099;BME280;5089;42.656;23.374;2022-07-23T10:30:22;95013.75;;;37.00;20.73
10099;BME280;5089;42.656;23.374;2022-07-23T10:32:59;94971.72;;;36.67;19.76
10099;BME280;5089;42.656;23.374;2022-07-23T10:35:43;95002.59;;;36.96;21.35
10099;BME280;5089;42.656;23.374;2022-07-23T10:38:18;94982.44;;;37.05;21.30
10099;BME280;5089;42.656;23.374;2022-07-23T10:40:54;95020.91;;;37.33;20.62
10099;BME280;5089;42.656;23.374;2022-07-23T10:43:22;95006.56;;;37.47;20.39
10099;BME280;5089;42.656;23.374;2022-07-23T10:45:50;95017.94;;;37.56;20.25
10099;BME280;5089;42.656;23.374;2022-07-23T10:48:20;94973.41;;;37.58;20.70
10099;BME280;5089;42.656;23.374;2022-07-23T10:51:10;94978.59;;;37.72;19.87
10099;BME280;5089;42.656;23.374;2022-07-23T10:53:56;94974.91;;;37.75;18.95
10099;BME280;5089;42.656;23.374;2022-07-23T10:57:04;94985.63;;;37.93;18.76
10099;BME280;5089;42.656;23.374;2022-07-23T11:02:39;94973.34;;;37.74;17.65
10099;BME280;5089;42.656;23.374;2022-07-23T11:05:08;94979.94;;;37.68;16.85
10099;BME280;5089;42.656;23.374;2022-07-23T11:08:18;94938.19;;;37.41;16.99
10099;BME280;5089;42.656;23.374;2022-07-23T11:10:51;94948.69;;;37.53;18.15
10099;BME280;5089;42.656;23.374;2022-07-23T11:13:42;94940.84;;;37.32;17.96
10099;BME280;5089;42.656;23.374;2022-07-23T11:16:21;94913.97;;;37.18;18.42
10099;BME280;5089;42.656;23.374;2022-07-23T11:19:08;94911.34;;;37.11;18.55
10099;BME280;5089;42.656;23.374;2022-07-23T11:21:50;94956.56;;;37.58;17.29
10099;BME280;5089;42.656;23.374;2022-07-23T11:24:45;94877.06;;;37.07;16.70
10099;BME280;5089;42.656;23.374;2022-07-23T11:27:37;94886.28;;;37.20;16.69
10099;BME280;5089;42.656;23.374;2022-07-23T11:30:39;94915.94;;;37.63;16.47
10099;BME280;5089;42.656;23.374;2022-07-23T11:33:17;94918.31;;;37.64;17.36
10099;BME280;5089;42.656;23.374;2022-07-23T11:35:47;94931.78;;;37.69;16.81
10099;BME280;5089;42.656;23.374;2022-07-23T11:38:17;94922.94;;;37.71;16.78
10099;BME280;5089;42.656;23.374;2022-07-23T11:40:48;94887.25;;;37.43;16.42
10099;BME280;5089;42.656;23.374;2022-07-23T11:43:16;94922.72;;;37.65;16.05
10099;BME280;5089;42.656;23.374;2022-07-23T11:45:45;94934.53;;;37.85;16.32
10099;BME280;5089;42.656;23.374;2022-07-23T11:48:17;94919.47;;;37.79;16.27
10099;BME280;5089;42.656;23.374;2022-07-23T11:50:46;94926.09;;;37.85;15.49
10099;BME280;5089;42.656;23.374;2022-07-23T11:53:21;94936.41;;;37.76;15.46
10099;BME280;5089;42.656;23.374;2022-07-23T11:55:50;94911.88;;;37.51;15.12
10099;BME280;5089;42.656;23.374;2022-07-23T11:58:17;94927.06;;;37.66;14.97
10099;BME280;5089;42.656;23.374;2022-07-23T12:00:44;94927.31;;;37.72;15.25
10099;BME280;5089;42.656;23.374;2022-07-23T12:03:11;94923.50;;;37.78;15.70
10099;BME280;5089;42.656;23.374;2022-07-23T12:05:38;94921.94;;;37.77;14.62
10099;BME280;5089;42.656;23.374;2022-07-23T12:08:07;94899.44;;;37.52;15.61
10099;BME280;5089;42.656;23.374;2022-07-23T12:10:37;94880.19;;;37.38;15.02
10099;BME280;5089;42.656;23.374;2022-07-23T12:13:07;94909.78;;;37.55;15.26
10099;BME280;5089;42.656;23.374;2022-07-23T12:15:37;94900.13;;;37.56;15.26
10099;BME280;5089;42.656;23.374;2022-07-23T12:18:09;94914.63;;;37.67;14.77
10099;BME280;5089;42.656;23.374;2022-07-23T12:20:38;94911.13;;;37.63;15.23
10099;BME280;5089;42.656;23.374;2022-07-23T12:23:08;94914.50;;;37.58;15.25
10099;BME280;5089;42.656;23.374;2022-07-23T12:25:38;94906.28;;;37.51;15.27
10099;BME280;5089;42.656;23.374;2022-07-23T12:28:08;94863.44;;;37.22;14.16
10099;BME280;5089;42.656;23.374;2022-07-23T12:30:38;94902.97;;;37.40;14.24
10099;BME280;5089;42.656;23.374;2022-07-23T12:33:07;94900.03;;;37.31;14.64
10099;BME280;5089;42.656;23.374;2022-07-23T12:40:51;94822.88;;;36.53;15.05
10099;BME280;5089;42.656;23.374;2022-07-23T12:43:24;94804.63;;;36.45;15.52
10099;BME280;5089;42.656;23.374;2022-07-23T12:45:57;94832.41;;;36.55;14.85
10099;BME280;5089;42.656;23.374;2022-07-23T12:48:25;94867.03;;;36.61;14.12
10099;BME280;5089;42.656;23.374;2022-07-23T12:51:03;94891.53;;;36.57;13.95
10099;BME280;5089;42.656;23.374;2022-07-23T12:53:50;94823.81;;;36.14;14.37
10099;BME280;5089;42.656;23.374;2022-07-23T12:56:34;94795.09;;;35.77;14.72
10099;BME280;5089;42.656;23.374;2022-07-23T13:01:52;94879.09;;;36.42;14.61
10099;BME280;5089;42.656;23.374;2022-07-23T13:04:23;94821.19;;;36.07;14.72
10099;BME280;5089;42.656;23.374;2022-07-23T13:06:52;94843.41;;;36.14;14.82
10099;BME280;5089;42.656;23.374;2022-07-23T13:09:21;94806.97;;;35.82;15.74
10099;BME280;5089;42.656;23.374;2022-07-23T13:11:49;94838.25;;;36.12;15.60
10099;BME280;5089;42.656;23.374;2022-07-23T13:14:19;94789.50;;;35.77;15.58
10099;BME280;5089;42.656;23.374;2022-07-23T13:16:52;94773.75;;;35.67;14.92
10099;BME280;5089;42.656;23.374;2022-07-23T13:19:20;94811.19;;;35.90;14.78
10099;BME280;5089;42.656;23.374;2022-07-23T13:21:50;94832.50;;;36.00;15.21
10099;BME280;5089;42.656;23.374;2022-07-23T13:24:18;94811.53;;;35.92;15.24
10099;BME280;5089;42.656;23.374;2022-07-23T13:26:53;94873.34;;;36.17;13.54
10099;BME280;5089;42.656;23.374;2022-07-23T13:29:20;94809.09;;;35.77;14.56
10099;BME280;5089;42.656;23.374;2022-07-23T13:31:47;94847.03;;;35.95;14.35
10099;BME280;5089;42.656;23.374;2022-07-23T13:34:16;94796.28;;;35.60;14.85
10099;BME280;5089;42.656;23.374;2022-07-23T13:36:42;94848.09;;;36.01;15.33
10099;BME280;5089;42.656;23.374;2022-07-23T13:39:09;94841.88;;;35.93;16.22
10099;BME280;5089;42.656;23.374;2022-07-23T13:41:37;94845.38;;;35.97;15.05
10099;BME280;5089;42.656;23.374;2022-07-23T13:44:04;94842.66;;;35.94;15.95
10099;BME280;5089;42.656;23.374;2022-07-23T13:46:31;94853.69;;;36.01;16.82
10099;BME280;5089;42.656;23.374;2022-07-23T13:48:58;94858.41;;;36.04;16.38
10099;BME280;5089;42.656;23.374;2022-07-23T13:51:26;94827.22;;;35.69;16.67
10099;BME280;5089;42.656;23.374;2022-07-23T13:53:53;94832.34;;;35.74;16.76
10099;BME280;5089;42.656;23.374;2022-07-23T13:56:20;94863.22;;;35.87;16.62
10099;BME280;5089;42.656;23.374;2022-07-23T13:58:47;94828.97;;;35.63;16.53
10099;BME280;5089;42.656;23.374;2022-07-23T14:01:13;94838.72;;;35.75;16.34
10099;BME280;5089;42.656;23.374;2022-07-23T14:03:40;94819.13;;;35.55;16.36
10099;BME280;5089;42.656;23.374;2022-07-23T14:06:07;94849.25;;;35.67;15.67
10099;BME280;5089;42.656;23.374;2022-07-23T14:08:36;94829.25;;;35.49;15.02
10099;BME280;5089;42.656;23.374;2022-07-23T14:11:05;94812.88;;;35.32;15.34
10099;BME280;5089;42.656;23.374;2022-07-23T14:13:32;94839.72;;;35.45;15.20
10099;BME280;5089;42.656;23.374;2022-07-23T14:15:59;94843.03;;;35.40;15.44
10099;BME280;5089;42.656;23.374;2022-07-23T14:18:29;94829.09;;;35.20;15.56
10099;BME280;5089;42.656;23.374;2022-07-23T14:20:56;94743.81;;;34.73;15.96
10099;BME280;5089;42.656;23.374;2022-07-23T14:23:36;94795.47;;;35.04;16.48
10099;BME280;5089;42.656;23.374;2022-07-23T14:26:03;94803.50;;;35.22;16.78
10099;BME280;5089;42.656;23.374;2022-07-23T14:28:33;94820.81;;;35.33;15.42
10099;BME280;5089;42.656;23.374;2022-07-23T14:31:03;94807.88;;;35.23;14.84
10099;BME280;5089;42.656;23.374;2022-07-23T14:33:38;94772.84;;;34.99;15.67
10099;BME280;5089;42.656;23.374;2022-07-23T14:36:05;94827.66;;;35.32;16.75
10099;BME280;5089;42.656;23.374;2022-07-23T14:38:39;94805.09;;;35.23;16.32
10099;BME280;5089;42.656;23.374;2022-07-23T14:41:06;94823.97;;;35.35;16.29
10099;BME280;5089;42.656;23.374;2022-07-23T14:43:34;94810.66;;;35.23;16.42
10099;BME280;5089;42.656;23.374;2022-07-23T14:46:03;94803.56;;;35.18;15.29
10099;BME280;5089;42.656;23.374;2022-07-23T14:48:39;94772.41;;;34.81;15.37
10099;BME280;5089;42.656;23.374;2022-07-23T14:51:08;94831.50;;;35.18;15.63
10099;BME280;5089;42.656;23.374;2022-07-23T14:53:34;94827.50;;;35.19;16.06
10099;BME280;5089;42.656;23.374;2022-07-23T14:56:04;94791.16;;;35.00;16.71
10099;BME280;5089;42.656;23.374;2022-07-23T14:58:46;94762.31;;;34.87;16.88
10099;BME280;5089;42.656;23.374;2022-07-23T15:01:15;94793.94;;;35.00;17.03
10099;BME280;5089;42.656;23.374;2022-07-23T15:03:42;94813.31;;;35.10;16.66
10099;BME280;5089;42.656;23.374;2022-07-23T15:06:10;94818.22;;;35.03;16.36
10099;BME280;5089;42.656;23.374;2022-07-23T15:08:36;94796.16;;;34.89;19.65
10099;BME280;5089;42.656;23.374;2022-07-23T15:11:05;94800.91;;;34.92;20.44
10099;BME280;5089;42.656;23.374;2022-07-23T15:13:34;94815.22;;;34.94;21.10
10099;BME280;5089;42.656;23.374;2022-07-23T15:16:01;94752.81;;;34.41;20.94
10099;BME280;5089;42.656;23.374;2022-07-23T15:18:28;94810.94;;;34.89;21.77
10099;BME280;5089;42.656;23.374;2022-07-23T15:20:55;94807.97;;;34.77;21.38
10099;BME280;5089;42.656;23.374;2022-07-23T15:23:22;94773.66;;;34.56;21.51
10099;BME280;5089;42.656;23.374;2022-07-23T15:25:49;94784.00;;;34.59;21.58
10099;BME280;5089;42.656;23.374;2022-07-23T15:28:17;94733.66;;;34.20;21.97
10099;BME280;5089;42.656;23.374;2022-07-23T15:30:44;94774.56;;;34.50;21.72
10099;BME280;5089;42.656;23.374;2022-07-23T15:33:10;94764.81;;;34.38;21.63
10099;BME280;5089;42.656;23.374;2022-07-23T15:35:37;94787.22;;;34.54;21.55
10099;BME280;5089;42.656;23.374;2022-07-23T15:38:04;94773.19;;;34.38;21.44
10099;BME280;5089;42.656;23.374;2022-07-23T15:40:31;94769.50;;;34.22;21.07
10099;BME280;5089;42.656;23.374;2022-07-23T15:42:58;94791.09;;;34.41;20.94
10099;BME280;5089;42.656;23.374;2022-07-23T15:45:26;94769.03;;;34.27;20.74
10099;BME280;5089;42.656;23.374;2022-07-23T15:47:54;94787.19;;;34.35;20.79
10099;BME280;5089;42.656;23.374;2022-07-23T15:50:21;94791.75;;;34.25;20.54
10099;BME280;5089;42.656;23.374;2022-07-23T15:52:48;94789.19;;;34.34;20.64
10099;BME280;5089;42.656;23.374;2022-07-23T15:55:15;94745.03;;;34.06;21.48
10099;BME280;5089;42.656;23.374;2022-07-23T15:57:42;94780.53;;;34.29;21.63
10099;BME280;5089;42.656;23.374;2022-07-23T16:00:09;94786.19;;;34.25;20.76
10099;BME280;5089;42.656;23.374;2022-07-23T16:02:38;94773.97;;;34.15;20.62
10099;BME280;5089;42.656;23.374;2022-07-23T16:05:05;94790.16;;;34.24;20.79
10099;BME280;5089;42.656;23.374;2022-07-23T16:07:49;94747.22;;;33.95;21.09
10099;BME280;5089;42.656;23.374;2022-07-23T16:10:16;94783.66;;;34.11;21.19
10099;BME280;5089;42.656;23.374;2022-07-23T16:12:43;94755.22;;;33.93;21.38
10099;BME280;5089;42.656;23.374;2022-07-23T16:15:10;94760.06;;;33.89;21.02
10099;BME280;5089;42.656;23.374;2022-07-23T16:17:38;94751.75;;;33.85;20.96
10099;BME280;5089;42.656;23.374;2022-07-23T16:20:06;94786.84;;;34.09;21.35
10099;BME280;5089;42.656;23.374;2022-07-23T16:22:34;94809.53;;;34.11;21.05
10099;BME280;5089;42.656;23.374;2022-07-23T16:25:02;94794.38;;;34.09;21.17
10099;BME280;5089;42.656;23.374;2022-07-23T16:27:31;94793.69;;;34.05;21.84
10099;BME280;5089;42.656;23.374;2022-07-23T16:29:58;94788.94;;;34.02;21.99
10099;BME280;5089;42.656;23.374;2022-07-23T16:32:25;94796.88;;;34.03;21.62
10099;BME280;5089;42.656;23.374;2022-07-23T16:34:53;94780.44;;;33.86;21.47
10099;BME280;5089;42.656;23.374;2022-07-23T16:37:20;94758.47;;;33.64;21.70
10099;BME280;5089;42.656;23.374;2022-07-23T16:39:47;94794.22;;;33.96;21.74
10099;BME280;5089;42.656;23.374;2022-07-23T16:42:14;94772.19;;;33.79;21.33
10099;BME280;5089;42.656;23.374;2022-07-23T16:44:41;94801.06;;;33.92;21.61
10099;BME280;5089;42.656;23.374;2022-07-23T16:47:08;94805.13;;;33.87;21.69
10099;BME280;5089;42.656;23.374;2022-07-23T16:49:35;94799.69;;;33.77;21.85
10099;BME280;5089;42.656;23.374;2022-07-23T16:52:03;94802.09;;;33.78;22.28
10099;BME280;5089;42.656;23.374;2022-07-23T16:54:30;94772.91;;;33.59;22.83
10099;BME280;5089;42.656;23.374;2022-07-23T16:56:57;94798.97;;;33.73;22.73
10099;BME280;5089;42.656;23.374;2022-07-23T16:59:24;94779.28;;;33.56;22.73
10099;BME280;5089;42.656;23.374;2022-07-23T17:01:51;94799.09;;;33.65;22.78
10099;BME280;5089;42.656;23.374;2022-07-23T17:04:18;94758.88;;;33.36;22.55
10099;BME280;5089;42.656;23.374;2022-07-23T17:06:45;94786.44;;;33.57;22.77
10099;BME280;5089;42.656;23.374;2022-07-23T17:09:13;94807.16;;;33.56;23.03
10099;BME280;5089;42.656;23.374;2022-07-23T17:11:40;94768.44;;;33.35;22.93
10099;BME280;5089;42.656;23.374;2022-07-23T17:14:07;94751.16;;;33.21;22.79
10099;BME280;5089;42.656;23.374;2022-07-23T17:16:34;94793.31;;;33.49;23.05
10099;BME280;5089;42.656;23.374;2022-07-23T17:19:02;94756.34;;;33.19;23.62
10099;BME280;5089;42.656;23.374;2022-07-23T17:21:29;94778.97;;;33.24;23.71
10099;BME280;5089;42.656;23.374;2022-07-23T17:23:56;94795.59;;;33.28;23.96
10099;BME280;5089;42.656;23.374;2022-07-23T17:26:25;94700.06;;;32.70;25.00
10099;BME280;5089;42.656;23.374;2022-07-23T17:28:52;94786.94;;;33.22;25.01
10099;BME280;5089;42.656;23.374;2022-07-23T17:31:19;94756.97;;;32.99;24.73
10099;BME280;5089;42.656;23.374;2022-07-23T17:33:46;94779.22;;;33.03;25.11
10099;BME280;5089;42.656;23.374;2022-07-23T17:36:13;94759.53;;;32.87;25.75
10099;BME280;5089;42.656;23.374;2022-07-23T17:38:40;94793.22;;;32.96;25.67
10099;BME280;5089;42.656;23.374;2022-07-23T17:41:07;94792.38;;;32.99;26.18
10099;BME280;5089;42.656;23.374;2022-07-23T17:43:35;94792.84;;;32.94;26.47
10099;BME280;5089;42.656;23.374;2022-07-23T17:46:02;94793.28;;;32.89;26.37
10099;BME280;5089;42.656;23.374;2022-07-23T17:48:29;94801.31;;;32.83;26.75
10099;BME280;5089;42.656;23.374;2022-07-23T17:50:55;94800.19;;;32.77;27.46
10099;BME280;5089;42.656;23.374;2022-07-23T17:53:23;94801.91;;;32.68;27.71
10099;BME280;5089;42.656;23.374;2022-07-23T17:55:51;94773.63;;;32.32;29.43
10099;BME280;5089;42.656;23.374;2022-07-23T17:58:17;94760.56;;;32.25;31.92
10099;BME280;5089;42.656;23.374;2022-07-23T18:00:46;94791.00;;;32.43;33.13
10099;BME280;5089;42.656;23.374;2022-07-23T18:03:13;94794.34;;;32.27;30.77
10099;BME280;5089;42.656;23.374;2022-07-23T18:05:40;94797.25;;;32.13;31.73
10099;BME280;5089;42.656;23.374;2022-07-23T18:08:07;94804.88;;;32.02;32.02
10099;BME280;5089;42.656;23.374;2022-07-23T18:10:34;94752.84;;;31.55;32.45
10099;BME280;5089;42.656;23.374;2022-07-23T18:13:02;94808.19;;;31.83;32.16
10099;BME280;5089;42.656;23.374;2022-07-23T18:15:30;94814.66;;;31.73;31.86
10099;BME280;5089;42.656;23.374;2022-07-23T18:17:58;94820.69;;;31.61;31.12
10099;BME280;5089;42.656;23.374;2022-07-23T18:20:26;94817.53;;;31.55;30.75
10099;BME280;5089;42.656;23.374;2022-07-23T18:22:52;94806.84;;;31.46;30.79
10099;BME280;5089;42.656;23.374;2022-07-23T18:25:20;94814.81;;;31.37;30.83
10099;BME280;5089;42.656;23.374;2022-07-23T18:27:47;94822.81;;;31.28;30.23
10099;BME280;5089;42.656;23.374;2022-07-23T18:30:13;94822.09;;;31.17;30.00
10099;BME280;5089;42.656;23.374;2022-07-23T18:32:40;94825.31;;;31.05;30.55
10099;BME280;5089;42.656;23.374;2022-07-23T18:35:09;94775.50;;;30.56;30.08
10099;BME280;5089;42.656;23.374;2022-07-23T18:37:36;94831.34;;;30.82;29.52
10099;BME280;5089;42.656;23.374;2022-07-23T18:40:04;94829.75;;;30.71;29.93
10099;BME280;5089;42.656;23.374;2022-07-23T18:42:31;94834.97;;;30.58;30.14
10099;BME280;5089;42.656;23.374;2022-07-23T18:44:58;94834.97;;;30.51;29.98
10099;BME280;5089;42.656;23.374;2022-07-23T18:47:26;94840.53;;;30.48;30.39
10099;BME280;5089;42.656;23.374;2022-07-23T18:49:53;94812.41;;;30.24;29.75
10099;BME280;5089;42.656;23.374;2022-07-23T18:52:21;94794.59;;;30.08;29.87
10099;BME280;5089;42.656;23.374;2022-07-23T18:54:48;94849.22;;;30.32;29.85
10099;BME280;5089;42.656;23.374;2022-07-23T18:57:14;94833.41;;;30.04;29.99
10099;BME280;5089;42.656;23.374;2022-07-23T18:59:41;94854.81;;;30.14;30.02
10099;BME280;5089;42.656;23.374;2022-07-23T19:02:08;94848.84;;;30.05;30.26
10099;BME280;5089;42.656;23.374;2022-07-23T19:04:35;94858.75;;;29.99;29.93
10099;BME280;5089;42.656;23.374;2022-07-23T19:07:02;94863.09;;;29.89;29.88
10099;BME280;5089;42.656;23.374;2022-07-23T19:09:30;94861.09;;;29.76;30.11
10099;BME280;5089;42.656;23.374;2022-07-23T19:11:57;94868.97;;;29.60;30.36
10099;BME280;5089;42.656;23.374;2022-07-23T19:14:24;94863.38;;;29.35;30.34
10099;BME280;5089;42.656;23.374;2022-07-23T19:16:50;94843.09;;;29.13;30.34
10099;BME280;5089;42.656;23.374;2022-07-23T19:19:17;94869.69;;;29.25;30.87